Latest Weather Observations for Legendre Island

IDW60801

Issued at 9:33 pm WST Monday 26 June 2017 (issued every 30 minutes, with the page automatically refreshed every 10 minutes)

About weather observations | Map of weather stations | Latest weather observations for WA | Other Formats
Station Details ID: 004095 Name: LEGENDRE ISLAND Lat: -20.36 Lon: 116.84 Height: 29.0 m
Data from the previous 72 hours. | See also: Recent months at Legendre Island
Date/Time
WST
Temp
°C
App
Temp
°C
Dew
Point
°C
Rel
Hum
%
Delta-T
°C
Wind Press
QNH
hPa
Press
MSL
hPa
Rain since
9am
mm
Dir  Spd
km/h
Gust
km/h
Spd
kts
Gust
kts
26/09:30pm 20.5 20.5 17.1 81 2.1 WSW 13 15 7 8 1017.3 1017.1 -
26/09:00pm 20.7 20.4 16.5 77 2.5 W 13 17 7 9 1017.1 1016.9 -
26/08:30pm 21.2 21.3 16.6 75 2.8 WNW 11 15 6 8 1016.9 1016.7 -
26/08:00pm 21.3 21.3 16.3 73 3.0 NW 11 13 6 7 1016.8 1016.6 -
26/07:30pm 22.2 21.2 16.7 71 3.4 N 17 17 9 9 1016.3 1016.1 -
26/07:00pm 22.4 21.2 16.2 68 3.8 N 17 19 9 10 1016.0 1015.8 -
26/06:30pm 22.4 21.9 16.0 67 3.9 N 13 15 7 8 1016.0 1015.8 -
26/06:00pm 22.3 21.2 15.4 65 4.1 NNE 15 17 8 9 1015.5 1015.3 -
26/05:30pm 22.5 22.3 15.6 65 4.1 NNE 11 15 6 8 1015.1 1015.0 -
26/05:00pm 22.8 22.6 15.6 64 4.3 NE 11 13 6 7 1014.9 1014.8 -
26/04:30pm 22.9 22.5 15.2 62 4.6 NE 11 13 6 7 1014.9 1014.8 -
26/04:00pm 22.9 21.9 14.7 60 4.9 E 13 15 7 8 1014.7 1014.6 -
26/03:30pm 23.5 21.9 15.0 59 5.1 E 17 20 9 11 1014.8 1014.7 -
26/03:00pm 23.8 22.2 15.0 57 5.3 E 17 20 9 11 1014.7 1014.6 -
26/02:30pm 23.4 21.0 14.4 57 5.3 E 20 26 11 14 1014.7 1014.6 -
26/02:00pm 23.0 20.9 15.1 61 4.7 ESE 20 24 11 13 1014.8 1014.7 -
26/01:30pm 23.4 21.1 14.7 58 5.2 ESE 20 24 11 13 1015.1 1015.0 -
26/01:00pm 22.9 20.2 14.7 60 4.9 ESE 22 28 12 15 1015.3 1015.2 -
26/12:30pm 22.7 19.6 14.5 60 4.8 ESE 24 30 13 16 1015.9 1015.7 -
26/12:00pm 21.5 17.8 14.9 66 3.9 ESE 28 33 15 18 1016.4 1016.2 -
26/11:30am 20.9 16.6 14.5 67 3.7 ESE 30 35 16 19 1016.7 1016.5 -
26/11:00am 20.7 16.2 13.9 65 3.9 ESE 30 37 16 20 1017.0 1016.8 -
26/10:30am 20.8 15.9 13.7 64 4.1 ESE 32 39 17 21 1017.3 1017.1 -
26/10:00am 21.3 16.5 14.7 66 3.9 ESE 33 43 18 23 1017.2 1017.0 -
26/09:30am 20.7 16.1 14.6 68 3.6 ESE 32 37 17 20 1017.2 1017.0 -
26/09:00am 20.7 16.2 14.8 69 3.5 SE 32 39 17 21 1017.0 1016.8 -
26/08:30am 20.1 14.8 15.3 74 2.8 ESE 37 43 20 23 1016.4 1016.2 -
26/08:00am 20.1 15.6 15.5 75 2.7 ESE 33 43 18 23 1016.0 1015.8 -
26/07:30am 19.3 15.2 14.8 75 2.6 SE 30 39 16 21 1015.6 1015.4 -
26/07:00am 19.0 15.2 14.7 76 2.5 SE 28 35 15 19 1015.3 1015.2 -
26/06:30am 19.3 14.7 14.6 74 2.7 SE 32 39 17 21 1014.9 1014.8 -
26/06:00am 19.8 14.8 15.0 74 2.8 ESE 35 41 19 22 1014.5 1014.4 -
26/05:30am 19.9 14.9 15.1 74 2.8 ESE 35 41 19 22 1014.2 1014.1 -
26/05:00am 20.0 15.5 13.9 68 3.5 ESE 30 35 16 19 1013.8 1013.7 -
26/04:30am 19.6 15.9 11.6 60 4.4 SE 22 30 12 16 1013.7 1013.6 -
26/04:00am 18.7 16.1 12.0 65 3.7 SSE 17 19 9 10 1013.8 1013.7 -
26/03:30am 18.7 15.6 11.5 63 3.9 S 19 22 10 12 1013.6 1013.5 -
26/03:00am 18.8 16.3 12.3 66 3.6 SSW 17 17 9 9 1013.4 1013.3 -
26/02:30am 19.0 16.8 13.4 70 3.2 SSW 17 19 9 10 1013.3 1013.2 -
26/02:00am 19.6 17.4 14.8 74 2.8 SSW 20 22 11 12 1013.3 1013.2 -
26/01:30am 19.9 17.9 15.5 76 2.6 SSW 20 24 11 13 1013.5 1013.4 -
26/01:00am 20.5 18.6 15.7 74 2.9 SSW 20 24 11 13 1013.6 1013.5 -
26/12:30am 20.9 18.6 15.7 72 3.1 SW 22 26 12 14 1013.6 1013.5 -
26/12:00am 21.4 18.8 15.9 71 3.3 SW 24 28 13 15 1013.7 1013.6 -
 
Date/Time
WST
Temp
°C
App
Temp
°C
Dew
Point
°C
Rel
Hum
%
Delta-T
°C
Wind Press
QNH
hPa
Press
MSL
hPa
Rain since
9am
mm
Dir  Spd
km/h
Gust
km/h
Spd
kts
Gust
kts
25/11:30pm 21.7 19.2 16.2 71 3.3 SW 24 30 13 16 1013.7 1013.6 -
25/11:00pm 21.9 19.2 16.6 72 3.2 SW 26 33 14 18 1013.7 1013.6 -
25/10:30pm 21.8 18.3 16.5 72 3.2 SW 30 39 16 21 1013.9 1013.8 -
25/10:00pm 21.7 18.4 17.1 75 2.8 SW 30 35 16 19 1013.9 1013.8 -
25/09:30pm 21.6 18.8 17.2 76 2.7 SW 28 33 15 18 1013.8 1013.7 -
25/09:00pm 21.8 19.3 17.2 75 2.8 WSW 26 32 14 17 1013.7 1013.6 -
25/08:30pm 21.9 19.7 16.8 73 3.1 WSW 24 30 13 16 1013.6 1013.5 -
25/08:00pm 22.1 18.8 16.1 69 3.6 WSW 28 32 15 17 1013.5 1013.4 -
25/07:30pm 22.0 20.0 16.5 71 3.3 WSW 22 28 12 15 1013.4 1013.3 -
25/07:00pm 22.0 19.9 16.1 69 3.6 WSW 22 26 12 14 1013.2 1013.1 -
25/06:30pm 22.0 19.5 15.1 65 4.1 WSW 22 28 12 15 1012.9 1012.8 -
25/06:00pm 22.3 19.7 14.9 63 4.4 W 22 28 12 15 1012.8 1012.7 -
25/05:30pm 22.9 20.2 14.7 60 4.9 W 22 26 12 14 1012.5 1012.4 -
25/05:00pm 23.7 21.4 14.1 55 5.6 W 19 24 10 13 1012.3 1012.2 -
25/04:30pm 24.2 21.2 13.7 52 6.1 W 22 28 12 15 1012.0 1011.9 -
25/04:00pm 24.4 21.8 13.9 52 6.2 W 20 24 11 13 1012.0 1011.9 -
25/03:30pm 24.4 21.7 13.6 51 6.3 W 20 26 11 14 1012.0 1011.9 -
25/03:00pm 25.0 22.2 13.2 48 6.9 W 20 26 11 14 1012.0 1011.9 -
25/02:30pm 25.1 22.1 12.7 46 7.2 W 20 24 11 13 1012.0 1011.9 -
25/02:00pm 25.5 23.0 13.4 47 7.1 W 19 24 10 13 1012.2 1012.1 -
25/01:30pm 25.2 23.5 14.6 51 6.3 W 17 22 9 12 1012.5 1012.4 -
25/01:00pm 25.1 22.9 13.3 48 6.9 WSW 17 20 9 11 1012.9 1012.8 -
25/12:30pm 24.7 22.4 14.2 52 6.2 WSW 19 22 10 12 1013.4 1013.3 -
25/12:00pm 24.7 22.6 13.6 50 6.5 WSW 17 20 9 11 1013.8 1013.7 -
25/11:30am 24.1 21.9 13.3 51 6.3 WSW 17 20 9 11 1014.3 1014.2 -
25/11:00am 23.8 22.0 13.4 52 6.0 SW 15 20 8 11 1014.9 1014.8 -
25/10:30am 23.4 21.7 12.4 50 6.3 SW 13 15 7 8 1015.1 1015.0 -
25/10:00am 23.1 21.6 11.8 49 6.4 SW 11 15 6 8 1015.3 1015.2 -
25/09:30am 22.9 21.7 12.8 53 5.8 SW 11 15 6 8 1015.6 1015.4 -
25/09:00am 21.7 20.0 12.5 56 5.2 SW 13 15 7 8 1015.5 1015.3 -
25/08:30am 20.9 19.4 13.1 61 4.5 SW 13 17 7 9 1015.1 1015.0 -
25/08:00am 19.8 17.8 14.0 69 3.3 SW 17 19 9 10 1014.8 1014.7 -
25/07:30am 19.1 16.5 13.9 72 3.0 SW 20 24 11 13 1014.4 1014.3 -
25/07:00am 19.0 16.0 14.7 76 2.5 SW 24 28 13 15 1014.0 1013.9 -
25/06:30am 19.0 16.1 15.1 78 2.3 SW 24 30 13 16 1013.8 1013.7 -
25/06:00am 19.0 15.3 14.9 77 2.4 SW 28 35 15 19 1013.4 1013.3 -
25/05:30am 19.1 14.7 15.2 78 2.3 SW 32 37 17 20 1013.2 1013.1 -
25/05:00am 19.0 14.7 15.3 79 2.2 SW 32 37 17 20 1013.2 1013.1 -
25/04:30am 19.3 15.1 15.8 80 2.1 SW 32 37 17 20 1013.3 1013.2 -
25/04:00am 19.7 14.9 15.6 77 2.4 SW 35 43 19 23 1013.2 1013.1 -
25/03:30am 19.8 15.1 15.9 78 2.3 SW 35 44 19 24 1012.9 1012.8 -
25/03:00am 20.1 15.0 15.7 76 2.6 SW 37 44 20 24 1013.1 1013.0 -
25/02:30am 20.3 15.2 15.7 75 2.7 SW 37 44 20 24 1013.2 1013.1 -
25/02:00am 20.6 15.8 15.6 73 3.0 SW 35 44 19 24 1013.4 1013.3 -
25/01:30am 20.9 16.0 15.4 71 3.3 SW 35 43 19 23 1013.5 1013.4 -
25/01:00am 21.1 15.7 15.0 68 3.6 SW 37 43 20 23 1013.5 1013.4 -
25/12:30am 21.3 16.7 15.2 68 3.6 SW 33 43 18 23 1013.7 1013.6 -
25/12:00am 21.6 17.0 15.0 66 3.9 SW 33 43 18 23 1013.7 1013.6 -
 
Date/Time
WST
Temp
°C
App
Temp
°C
Dew
Point
°C
Rel
Hum
%
Delta-T
°C
Wind Press
QNH
hPa
Press
MSL
hPa
Rain since
9am
mm
Dir  Spd
km/h
Gust
km/h
Spd
kts
Gust
kts
24/11:30pm 21.9 17.6 16.0 69 3.6 WSW 33 43 18 23 1013.9 1013.8 -
24/11:00pm 21.8 17.2 14.7 64 4.2 WSW 32 41 17 22 1014.0 1013.9 -
24/10:30pm 21.9 17.3 15.0 65 4.1 WSW 33 41 18 22 1014.2 1014.1 -
24/10:00pm 21.9 16.9 14.0 61 4.6 WSW 33 39 18 21 1014.2 1014.1 -
24/09:30pm 21.7 17.3 14.1 62 4.4 WSW 30 35 16 19 1014.3 1014.2 -
24/09:00pm 21.7 17.2 14.8 65 4.1 WSW 32 37 17 20 1014.1 1014.0 -
24/08:30pm 21.7 17.2 13.9 61 4.5 WSW 30 37 16 20 1013.8 1013.7 -
24/08:00pm 21.9 16.7 12.7 56 5.2 WSW 32 39 17 21 1013.6 1013.5 -
24/07:30pm 22.1 17.1 12.1 53 5.6 WSW 30 37 16 20 1013.5 1013.4 -
24/07:00pm 21.9 17.1 11.6 52 5.8 WSW 28 35 15 19 1013.2 1013.1 -
24/06:30pm 21.7 17.3 10.5 49 6.1 WSW 24 30 13 16 1012.9 1012.8 -
24/06:00pm 21.8 17.3 10.0 47 6.4 WSW 24 30 13 16 1012.8 1012.7 -
24/05:30pm 21.9 17.5 9.1 44 6.8 W 22 28 12 15 1012.4 1012.3 -
24/05:00pm 22.4 17.3 9.2 43 7.1 W 26 32 14 17 1012.2 1012.1 -
24/04:30pm 22.7 17.4 8.4 40 7.6 W 26 30 14 16 1012.0 1011.9 -
24/04:00pm 23.2 18.4 7.3 36 8.3 W 22 30 12 16 1011.9 1011.8 -
24/03:30pm 23.7 19.0 7.8 36 8.4 W 22 26 12 14 1011.7 1011.6 -
24/03:00pm 23.7 19.3 7.3 35 8.6 W 20 26 11 14 1011.7 1011.6 -
24/02:30pm 24.2 19.6 8.2 36 8.5 W 22 28 12 15 1011.7 1011.6 -
24/02:00pm 24.4 20.0 7.5 34 8.9 W 20 28 11 15 1011.9 1011.8 -
24/01:30pm 24.3 19.1 7.4 34 8.9 WSW 24 28 13 15 1012.0 1011.9 -
24/01:00pm 24.5 20.4 8.5 36 8.6 WSW 20 24 11 13 1012.5 1012.4 -
24/12:30pm 23.6 19.7 8.8 39 7.9 WSW 19 22 10 12 1012.7 1012.6 -
24/12:00pm 23.4 19.2 8.3 38 8.0 WSW 20 24 11 13 1013.3 1013.2 -
24/11:30am 23.6 20.2 10.6 44 7.2 SW 19 24 10 13 1013.6 1013.5 -
24/11:00am 23.1 20.2 10.9 46 6.8 SW 17 20 9 11 1014.3 1014.2 -
24/10:30am 22.6 20.3 11.7 50 6.1 SW 15 19 8 10 1014.6 1014.5 -
24/10:00am 21.9 19.4 12.2 54 5.5 SW 17 20 9 11 1014.9 1014.8 -
24/09:30am 21.6 19.1 11.0 51 5.8 SW 15 17 8 9 1014.9 1014.8 -
24/09:00am 21.9 18.9 11.9 53 5.6 SW 19 24 10 13 1014.8 1014.7 -
24/08:30am 21.2 18.0 11.8 55 5.3 SW 20 24 11 13 1014.6 1014.5 -
24/08:00am 20.4 17.1 11.6 57 4.9 SW 20 24 11 13 1014.1 1014.0 -
24/07:30am 19.9 16.7 11.9 60 4.4 SW 20 24 11 13 1013.8 1013.7 -
24/07:00am 19.5 16.1 11.3 59 4.5 SW 20 24 11 13 1013.5 1013.4 -
24/06:30am 19.3 16.1 11.1 59 4.5 SW 19 24 10 13 1013.2 1013.1 -
24/06:00am 19.5 16.0 10.2 55 5.0 SW 19 22 10 12 1012.9 1012.8 -
24/05:30am 19.6 16.5 10.3 55 5.0 SW 17 22 9 12 1012.6 1012.5 -
24/05:00am 20.2 16.9 10.9 55 5.1 SW 19 22 10 12 1012.5 1012.4 -
24/04:30am 20.4 16.3 10.2 52 5.5 SW 22 26 12 14 1012.6 1012.5 -
24/04:00am 20.4 16.2 9.6 50 5.8 SW 22 26 12 14 1012.7 1012.6 -
24/03:30am 20.4 16.3 10.2 52 5.5 SW 22 26 12 14 1013.0 1012.9 -
24/03:00am 20.6 16.6 10.4 52 5.5 SW 22 26 12 14 1013.0 1012.9 -
24/02:30am 20.7 16.6 10.2 51 5.7 SW 22 26 12 14 1013.2 1013.1 -
24/02:00am 20.8 16.8 10.3 51 5.7 SW 22 28 12 15 1013.2 1013.1 -
24/01:30am 21.1 16.6 10.0 49 6.0 SW 24 28 13 15 1013.5 1013.4 -
24/01:00am 21.3 16.6 10.5 50 5.9 SW 26 30 14 16 1013.8 1013.7 -
24/12:30am 21.6 17.0 11.0 51 5.8 SW 26 33 14 18 1013.8 1013.7 -
24/12:00am 21.8 17.2 11.2 51 5.9 SW 26 33 14 18 1013.7 1013.6 -
 
Date/Time
WST
Temp
°C
App
Temp
°C
Dew
Point
°C
Rel
Hum
%
Delta-T
°C
Wind Press
QNH
hPa
Press
MSL
hPa
Rain since
9am
mm
Dir  Spd
km/h
Gust
km/h
Spd
kts
Gust
kts
23/11:30pm 22.0 16.3 11.1 50 6.0 SW 32 37 17 20 1014.0 1013.9 -
23/11:00pm 22.1 17.0 11.8 52 5.8 SW 30 35 16 19 1014.3 1014.2 -
23/10:30pm 22.0 17.1 12.5 54 5.4 SW 30 35 16 19 1014.5 1014.4 -
23/10:00pm 21.9 18.0 14.5 63 4.3 SW 28 33 15 18 1014.4 1014.3 -

Other Formats:

Comma delimited format used in spreadsheet applications
http://www.bom.gov.au/fwo/IDW60801/IDW60801.94307.axf

JavaScript Object Notation format (JSON) in row-major order
http://www.bom.gov.au/fwo/IDW60801/IDW60801.94307.json